sensor_id;sensor_type;location;lat;lon;timestamp;P1;durP1;ratioP1;P2;durP2;ratioP2
21519;SDS011;10921;53.614;9.882;2022-12-08T00:00:23;70.75;;;45.15;;
21519;SDS011;10921;53.614;9.882;2022-12-08T00:02:49;61.05;;;43.85;;
21519;SDS011;10921;53.614;9.882;2022-12-08T00:05:16;59.58;;;42.28;;
21519;SDS011;10921;53.614;9.882;2022-12-08T00:08:03;70.72;;;44.83;;
21519;SDS011;10921;53.614;9.882;2022-12-08T00:10:48;75.45;;;45.38;;
21519;SDS011;10921;53.614;9.882;2022-12-08T00:13:15;65.88;;;44.05;;
21519;SDS011;10921;53.614;9.882;2022-12-08T00:15:41;67.13;;;46.58;;
21519;SDS011;10921;53.614;9.882;2022-12-08T00:18:08;57.42;;;41.55;;
21519;SDS011;10921;53.614;9.882;2022-12-08T00:20:34;86.70;;;51.05;;
21519;SDS011;10921;53.614;9.882;2022-12-08T00:23:01;68.88;;;45.55;;
21519;SDS011;10921;53.614;9.882;2022-12-08T00:25:29;70.47;;;48.67;;
21519;SDS011;10921;53.614;9.882;2022-12-08T00:27:56;62.08;;;46.00;;
21519;SDS011;10921;53.614;9.882;2022-12-08T00:30:23;58.88;;;43.90;;
21519;SDS011;10921;53.614;9.882;2022-12-08T00:32:49;63.80;;;46.95;;
21519;SDS011;10921;53.614;9.882;2022-12-08T00:35:16;59.47;;;42.78;;
21519;SDS011;10921;53.614;9.882;2022-12-08T00:37:42;62.60;;;41.63;;
21519;SDS011;10921;53.614;9.882;2022-12-08T00:40:09;69.80;;;44.08;;
21519;SDS011;10921;53.614;9.882;2022-12-08T00:42:36;57.63;;;41.25;;
21519;SDS011;10921;53.614;9.882;2022-12-08T00:45:02;57.22;;;39.80;;
21519;SDS011;10921;53.614;9.882;2022-12-08T00:47:29;53.85;;;38.33;;
21519;SDS011;10921;53.614;9.882;2022-12-08T00:49:56;74.47;;;42.72;;
21519;SDS011;10921;53.614;9.882;2022-12-08T00:52:22;85.22;;;44.25;;
21519;SDS011;10921;53.614;9.882;2022-12-08T00:54:49;56.67;;;38.55;;
21519;SDS011;10921;53.614;9.882;2022-12-08T00:57:15;105.05;;;44.28;;
21519;SDS011;10921;53.614;9.882;2022-12-08T00:59:42;63.35;;;38.55;;
21519;SDS011;10921;53.614;9.882;2022-12-08T01:02:08;56.13;;;35.70;;
21519;SDS011;10921;53.614;9.882;2022-12-08T01:04:35;57.88;;;37.35;;
21519;SDS011;10921;53.614;9.882;2022-12-08T01:07:01;76.28;;;41.45;;
21519;SDS011;10921;53.614;9.882;2022-12-08T01:09:28;64.30;;;39.67;;
21519;SDS011;10921;53.614;9.882;2022-12-08T01:11:54;49.65;;;36.17;;
21519;SDS011;10921;53.614;9.882;2022-12-08T01:14:21;44.10;;;35.90;;
21519;SDS011;10921;53.614;9.882;2022-12-08T01:16:47;40.20;;;32.95;;
21519;SDS011;10921;53.614;9.882;2022-12-08T01:19:14;40.97;;;34.50;;
21519;SDS011;10921;53.614;9.882;2022-12-08T01:21:42;40.20;;;34.55;;
21519;SDS011;10921;53.614;9.882;2022-12-08T01:24:13;41.42;;;35.88;;
21519;SDS011;10921;53.614;9.882;2022-12-08T01:26:45;40.67;;;35.55;;
21519;SDS011;10921;53.614;9.882;2022-12-08T01:29:12;39.20;;;35.42;;
21519;SDS011;10921;53.614;9.882;2022-12-08T01:31:39;38.75;;;34.92;;
21519;SDS011;10921;53.614;9.882;2022-12-08T01:34:06;39.92;;;35.38;;
21519;SDS011;10921;53.614;9.882;2022-12-08T01:36:34;37.55;;;33.95;;
21519;SDS011;10921;53.614;9.882;2022-12-08T01:39:06;36.97;;;33.17;;
21519;SDS011;10921;53.614;9.882;2022-12-08T01:41:35;39.20;;;35.22;;
21519;SDS011;10921;53.614;9.882;2022-12-08T01:46:34;38.85;;;35.08;;
21519;SDS011;10921;53.614;9.882;2022-12-08T01:49:11;38.00;;;34.13;;
21519;SDS011;10921;53.614;9.882;2022-12-08T01:54:52;37.50;;;33.70;;
21519;SDS011;10921;53.614;9.882;2022-12-08T01:57:24;35.35;;;31.90;;
21519;SDS011;10921;53.614;9.882;2022-12-08T02:00:13;34.75;;;31.55;;
21519;SDS011;10921;53.614;9.882;2022-12-08T02:02:46;34.35;;;31.25;;
21519;SDS011;10921;53.614;9.882;2022-12-08T02:05:20;33.67;;;30.35;;
21519;SDS011;10921;53.614;9.882;2022-12-08T02:10:18;27.27;;;24.98;;
21519;SDS011;10921;53.614;9.882;2022-12-08T02:12:47;27.45;;;24.98;;
21519;SDS011;10921;53.614;9.882;2022-12-08T02:15:16;27.45;;;24.95;;
21519;SDS011;10921;53.614;9.882;2022-12-08T02:30:04;30.55;;;27.85;;
21519;SDS011;10921;53.614;9.882;2022-12-08T02:40:55;34.95;;;31.33;;
21519;SDS011;10921;53.614;9.882;2022-12-08T02:43:37;33.40;;;29.85;;
21519;SDS011;10921;53.614;9.882;2022-12-08T02:46:10;34.40;;;31.10;;
21519;SDS011;10921;53.614;9.882;2022-12-08T02:48:41;34.38;;;31.02;;
21519;SDS011;10921;53.614;9.882;2022-12-08T02:51:08;35.90;;;32.20;;
21519;SDS011;10921;53.614;9.882;2022-12-08T02:53:35;33.10;;;30.00;;
21519;SDS011;10921;53.614;9.882;2022-12-08T03:04:05;30.65;;;27.75;;
21519;SDS011;10921;53.614;9.882;2022-12-08T03:12:40;30.70;;;27.73;;
21519;SDS011;10921;53.614;9.882;2022-12-08T03:15:12;29.20;;;26.70;;
21519;SDS011;10921;53.614;9.882;2022-12-08T03:17:44;27.98;;;25.65;;
21519;SDS011;10921;53.614;9.882;2022-12-08T03:20:20;27.15;;;24.95;;
21519;SDS011;10921;53.614;9.882;2022-12-08T03:22:50;25.92;;;23.83;;
21519;SDS011;10921;53.614;9.882;2022-12-08T03:25:21;25.50;;;23.50;;
21519;SDS011;10921;53.614;9.882;2022-12-08T03:27:50;24.92;;;22.63;;
21519;SDS011;10921;53.614;9.882;2022-12-08T03:30:17;26.10;;;23.58;;
21519;SDS011;10921;53.614;9.882;2022-12-08T03:35:25;23.80;;;21.92;;
21519;SDS011;10921;53.614;9.882;2022-12-08T03:38:01;23.92;;;21.92;;
21519;SDS011;10921;53.614;9.882;2022-12-08T03:40:38;24.08;;;22.35;;
21519;SDS011;10921;53.614;9.882;2022-12-08T03:43:05;24.13;;;22.33;;
21519;SDS011;10921;53.614;9.882;2022-12-08T03:45:32;23.27;;;21.38;;
21519;SDS011;10921;53.614;9.882;2022-12-08T03:47:59;23.35;;;21.35;;
21519;SDS011;10921;53.614;9.882;2022-12-08T03:50:26;22.67;;;21.00;;
21519;SDS011;10921;53.614;9.882;2022-12-08T03:52:52;21.45;;;19.92;;
21519;SDS011;10921;53.614;9.882;2022-12-08T03:55:19;22.58;;;20.88;;
21519;SDS011;10921;53.614;9.882;2022-12-08T03:57:46;22.80;;;20.90;;
21519;SDS011;10921;53.614;9.882;2022-12-08T04:00:14;22.38;;;20.60;;
21519;SDS011;10921;53.614;9.882;2022-12-08T04:02:42;23.23;;;21.10;;
21519;SDS011;10921;53.614;9.882;2022-12-08T04:05:08;22.30;;;20.70;;
21519;SDS011;10921;53.614;9.882;2022-12-08T04:07:35;24.10;;;22.08;;
21519;SDS011;10921;53.614;9.882;2022-12-08T04:10:02;22.85;;;21.08;;
21519;SDS011;10921;53.614;9.882;2022-12-08T04:12:30;23.33;;;21.48;;
21519;SDS011;10921;53.614;9.882;2022-12-08T04:14:56;23.42;;;21.63;;
21519;SDS011;10921;53.614;9.882;2022-12-08T04:17:23;24.00;;;22.20;;
21519;SDS011;10921;53.614;9.882;2022-12-08T04:19:49;23.08;;;21.40;;
21519;SDS011;10921;53.614;9.882;2022-12-08T04:22:16;23.30;;;21.30;;
21519;SDS011;10921;53.614;9.882;2022-12-08T04:24:42;23.23;;;21.52;;
21519;SDS011;10921;53.614;9.882;2022-12-08T04:27:09;23.80;;;21.90;;
21519;SDS011;10921;53.614;9.882;2022-12-08T04:29:35;24.23;;;22.02;;
21519;SDS011;10921;53.614;9.882;2022-12-08T04:32:02;23.55;;;21.85;;
21519;SDS011;10921;53.614;9.882;2022-12-08T04:34:28;22.27;;;20.67;;
21519;SDS011;10921;53.614;9.882;2022-12-08T04:36:55;21.90;;;20.40;;
21519;SDS011;10921;53.614;9.882;2022-12-08T04:39:21;22.08;;;20.40;;
21519;SDS011;10921;53.614;9.882;2022-12-08T04:41:48;21.55;;;19.85;;
21519;SDS011;10921;53.614;9.882;2022-12-08T04:44:14;21.42;;;19.90;;
21519;SDS011;10921;53.614;9.882;2022-12-08T04:46:40;21.48;;;20.08;;
21519;SDS011;10921;53.614;9.882;2022-12-08T04:49:09;21.13;;;19.63;;
21519;SDS011;10921;53.614;9.882;2022-12-08T04:51:35;20.30;;;19.00;;
21519;SDS011;10921;53.614;9.882;2022-12-08T04:54:02;20.42;;;19.13;;
21519;SDS011;10921;53.614;9.882;2022-12-08T04:56:28;20.67;;;19.27;;
21519;SDS011;10921;53.614;9.882;2022-12-08T04:58:55;20.55;;;19.15;;
21519;SDS011;10921;53.614;9.882;2022-12-08T05:01:21;20.83;;;19.33;;
21519;SDS011;10921;53.614;9.882;2022-12-08T05:03:48;21.90;;;19.98;;
21519;SDS011;10921;53.614;9.882;2022-12-08T05:06:14;21.15;;;19.75;;
21519;SDS011;10921;53.614;9.882;2022-12-08T05:08:41;20.63;;;19.13;;
21519;SDS011;10921;53.614;9.882;2022-12-08T05:11:08;21.13;;;19.70;;
21519;SDS011;10921;53.614;9.882;2022-12-08T05:13:36;20.95;;;19.38;;
21519;SDS011;10921;53.614;9.882;2022-12-08T05:16:03;21.67;;;20.08;;
21519;SDS011;10921;53.614;9.882;2022-12-08T05:18:31;20.85;;;19.45;;
21519;SDS011;10921;53.614;9.882;2022-12-08T05:20:58;21.45;;;19.95;;
21519;SDS011;10921;53.614;9.882;2022-12-08T05:23:25;22.27;;;20.70;;
21519;SDS011;10921;53.614;9.882;2022-12-08T05:25:52;21.45;;;19.90;;
21519;SDS011;10921;53.614;9.882;2022-12-08T05:28:19;21.90;;;20.30;;
21519;SDS011;10921;53.614;9.882;2022-12-08T05:31:05;20.90;;;19.40;;
21519;SDS011;10921;53.614;9.882;2022-12-08T05:33:32;19.80;;;18.42;;
21519;SDS011;10921;53.614;9.882;2022-12-08T05:35:58;19.92;;;18.63;;
21519;SDS011;10921;53.614;9.882;2022-12-08T05:38:25;20.27;;;18.77;;
21519;SDS011;10921;53.614;9.882;2022-12-08T05:40:51;19.42;;;18.17;;
21519;SDS011;10921;53.614;9.882;2022-12-08T05:43:18;20.00;;;18.70;;
21519;SDS011;10921;53.614;9.882;2022-12-08T05:45:44;19.30;;;18.05;;
21519;SDS011;10921;53.614;9.882;2022-12-08T05:48:11;19.52;;;18.23;;
21519;SDS011;10921;53.614;9.882;2022-12-08T05:50:37;20.02;;;18.70;;
21519;SDS011;10921;53.614;9.882;2022-12-08T05:53:04;19.65;;;18.35;;
21519;SDS011;10921;53.614;9.882;2022-12-08T05:55:30;19.35;;;18.05;;
21519;SDS011;10921;53.614;9.882;2022-12-08T05:57:57;20.13;;;18.63;;
21519;SDS011;10921;53.614;9.882;2022-12-08T06:00:29;20.17;;;18.77;;
21519;SDS011;10921;53.614;9.882;2022-12-08T06:02:59;20.50;;;19.20;;
21519;SDS011;10921;53.614;9.882;2022-12-08T06:05:26;20.60;;;19.17;;
21519;SDS011;10921;53.614;9.882;2022-12-08T06:07:53;20.85;;;19.42;;
21519;SDS011;10921;53.614;9.882;2022-12-08T06:10:19;19.80;;;18.55;;
21519;SDS011;10921;53.614;9.882;2022-12-08T06:12:48;20.42;;;19.00;;
21519;SDS011;10921;53.614;9.882;2022-12-08T06:15:14;21.63;;;20.10;;
21519;SDS011;10921;53.614;9.882;2022-12-08T06:17:41;21.85;;;20.35;;
21519;SDS011;10921;53.614;9.882;2022-12-08T06:20:07;23.13;;;21.63;;
21519;SDS011;10921;53.614;9.882;2022-12-08T06:22:35;23.15;;;21.63;;
21519;SDS011;10921;53.614;9.882;2022-12-08T06:25:02;23.50;;;21.90;;
21519;SDS011;10921;53.614;9.882;2022-12-08T06:27:34;23.17;;;21.55;;
21519;SDS011;10921;53.614;9.882;2022-12-08T06:30:01;24.13;;;22.42;;
21519;SDS011;10921;53.614;9.882;2022-12-08T06:32:28;25.02;;;23.23;;
21519;SDS011;10921;53.614;9.882;2022-12-08T06:34:55;25.13;;;23.33;;
21519;SDS011;10921;53.614;9.882;2022-12-08T06:37:21;25.85;;;23.95;;
21519;SDS011;10921;53.614;9.882;2022-12-08T06:39:48;25.42;;;23.63;;
21519;SDS011;10921;53.614;9.882;2022-12-08T06:42:14;26.88;;;24.98;;
21519;SDS011;10921;53.614;9.882;2022-12-08T06:44:59;26.73;;;24.33;;
21519;SDS011;10921;53.614;9.882;2022-12-08T06:47:25;25.70;;;23.70;;
21519;SDS011;10921;53.614;9.882;2022-12-08T06:49:52;26.40;;;24.38;;
21519;SDS011;10921;53.614;9.882;2022-12-08T06:52:18;27.20;;;25.00;;
21519;SDS011;10921;53.614;9.882;2022-12-08T06:54:45;26.73;;;24.77;;
21519;SDS011;10921;53.614;9.882;2022-12-08T06:57:11;27.27;;;25.17;;
21519;SDS011;10921;53.614;9.882;2022-12-08T06:59:38;25.35;;;23.48;;
21519;SDS011;10921;53.614;9.882;2022-12-08T07:02:05;25.75;;;23.90;;
21519;SDS011;10921;53.614;9.882;2022-12-08T07:04:32;25.33;;;23.42;;
21519;SDS011;10921;53.614;9.882;2022-12-08T07:06:58;27.40;;;24.80;;
21519;SDS011;10921;53.614;9.882;2022-12-08T07:09:24;26.05;;;24.05;;
21519;SDS011;10921;53.614;9.882;2022-12-08T07:11:51;26.15;;;24.05;;
21519;SDS011;10921;53.614;9.882;2022-12-08T07:14:17;26.50;;;24.50;;
21519;SDS011;10921;53.614;9.882;2022-12-08T07:16:48;25.73;;;23.67;;
21519;SDS011;10921;53.614;9.882;2022-12-08T07:19:16;26.60;;;24.60;;
21519;SDS011;10921;53.614;9.882;2022-12-08T07:21:42;25.80;;;23.92;;
21519;SDS011;10921;53.614;9.882;2022-12-08T07:24:09;26.35;;;24.35;;
21519;SDS011;10921;53.614;9.882;2022-12-08T07:26:36;26.45;;;24.45;;
21519;SDS011;10921;53.614;9.882;2022-12-08T07:29:03;27.58;;;25.38;;
21519;SDS011;10921;53.614;9.882;2022-12-08T07:31:29;27.75;;;25.40;;
21519;SDS011;10921;53.614;9.882;2022-12-08T07:33:56;28.48;;;26.17;;
21519;SDS011;10921;53.614;9.882;2022-12-08T07:36:23;27.90;;;25.60;;
21519;SDS011;10921;53.614;9.882;2022-12-08T07:38:51;27.98;;;25.67;;
21519;SDS011;10921;53.614;9.882;2022-12-08T07:41:21;28.83;;;26.50;;
21519;SDS011;10921;53.614;9.882;2022-12-08T07:43:49;28.85;;;26.45;;
21519;SDS011;10921;53.614;9.882;2022-12-08T07:46:17;28.67;;;26.38;;
21519;SDS011;10921;53.614;9.882;2022-12-08T07:48:45;31.98;;;29.13;;
21519;SDS011;10921;53.614;9.882;2022-12-08T07:51:12;30.55;;;27.92;;
21519;SDS011;10921;53.614;9.882;2022-12-08T07:53:40;31.27;;;28.67;;
21519;SDS011;10921;53.614;9.882;2022-12-08T07:56:15;30.67;;;28.08;;
21519;SDS011;10921;53.614;9.882;2022-12-08T07:58:41;29.88;;;27.50;;
21519;SDS011;10921;53.614;9.882;2022-12-08T08:01:44;29.70;;;27.40;;
21519;SDS011;10921;53.614;9.882;2022-12-08T08:04:04;31.05;;;28.30;;
21519;SDS011;10921;53.614;9.882;2022-12-08T08:06:31;30.77;;;28.27;;
21519;SDS011;10921;53.614;9.882;2022-12-08T08:08:59;30.60;;;27.90;;
21519;SDS011;10921;53.614;9.882;2022-12-08T08:11:26;30.90;;;28.20;;
21519;SDS011;10921;53.614;9.882;2022-12-08T08:13:52;28.50;;;26.20;;
21519;SDS011;10921;53.614;9.882;2022-12-08T08:16:19;69.35;;;45.08;;
21519;SDS011;10921;53.614;9.882;2022-12-08T08:18:47;52.65;;;40.28;;
21519;SDS011;10921;53.614;9.882;2022-12-08T08:21:15;50.95;;;38.55;;
21519;SDS011;10921;53.614;9.882;2022-12-08T08:24:02;42.00;;;35.72;;
21519;SDS011;10921;53.614;9.882;2022-12-08T08:26:28;37.25;;;33.53;;
21519;SDS011;10921;53.614;9.882;2022-12-08T08:28:55;56.78;;;38.22;;
21519;SDS011;10921;53.614;9.882;2022-12-08T08:31:25;33.10;;;29.98;;
21519;SDS011;10921;53.614;9.882;2022-12-08T08:33:52;192.57;;;70.18;;
21519;SDS011;10921;53.614;9.882;2022-12-08T08:36:19;55.03;;;35.58;;
21519;SDS011;10921;53.614;9.882;2022-12-08T08:38:47;35.97;;;31.52;;
21519;SDS011;10921;53.614;9.882;2022-12-08T08:41:13;40.13;;;31.63;;
21519;SDS011;10921;53.614;9.882;2022-12-08T08:43:40;46.85;;;32.92;;
21519;SDS011;10921;53.614;9.882;2022-12-08T08:46:06;49.08;;;31.92;;
21519;SDS011;10921;53.614;9.882;2022-12-08T08:48:34;54.55;;;33.78;;
21519;SDS011;10921;53.614;9.882;2022-12-08T08:51:08;55.00;;;33.72;;
21519;SDS011;10921;53.614;9.882;2022-12-08T08:53:36;32.50;;;29.00;;
21519;SDS011;10921;53.614;9.882;2022-12-08T08:56:07;32.25;;;29.08;;
21519;SDS011;10921;53.614;9.882;2022-12-08T08:58:38;31.30;;;28.42;;
21519;SDS011;10921;53.614;9.882;2022-12-08T09:01:05;29.65;;;26.98;;
21519;SDS011;10921;53.614;9.882;2022-12-08T09:03:32;31.13;;;28.35;;
21519;SDS011;10921;53.614;9.882;2022-12-08T09:05:59;32.33;;;29.63;;
21519;SDS011;10921;53.614;9.882;2022-12-08T09:08:25;31.77;;;29.00;;
21519;SDS011;10921;53.614;9.882;2022-12-08T09:10:52;31.25;;;28.60;;
21519;SDS011;10921;53.614;9.882;2022-12-08T09:13:19;33.92;;;30.73;;
21519;SDS011;10921;53.614;9.882;2022-12-08T09:15:47;37.55;;;34.05;;
21519;SDS011;10921;53.614;9.882;2022-12-08T09:18:14;36.13;;;32.92;;
21519;SDS011;10921;53.614;9.882;2022-12-08T09:20:40;36.35;;;32.72;;
21519;SDS011;10921;53.614;9.882;2022-12-08T09:23:07;40.05;;;35.60;;
21519;SDS011;10921;53.614;9.882;2022-12-08T09:25:33;95.82;;;46.90;;
21519;SDS011;10921;53.614;9.882;2022-12-08T09:28:00;88.90;;;45.97;;
21519;SDS011;10921;53.614;9.882;2022-12-08T09:30:26;51.35;;;39.20;;
21519;SDS011;10921;53.614;9.882;2022-12-08T09:32:53;46.08;;;37.17;;
21519;SDS011;10921;53.614;9.882;2022-12-08T09:35:19;36.70;;;32.83;;
21519;SDS011;10921;53.614;9.882;2022-12-08T09:37:46;38.67;;;34.78;;
21519;SDS011;10921;53.614;9.882;2022-12-08T09:40:16;38.50;;;34.80;;
21519;SDS011;10921;53.614;9.882;2022-12-08T09:42:54;37.50;;;33.83;;
21519;SDS011;10921;53.614;9.882;2022-12-08T09:45:32;35.97;;;32.47;;
21519;SDS011;10921;53.614;9.882;2022-12-08T09:48:11;36.58;;;33.10;;
21519;SDS011;10921;53.614;9.882;2022-12-08T09:51:01;37.38;;;33.90;;
21519;SDS011;10921;53.614;9.882;2022-12-08T09:56:15;32.05;;;29.27;;
21519;SDS011;10921;53.614;9.882;2022-12-08T09:58:55;33.22;;;30.23;;
21519;SDS011;10921;53.614;9.882;2022-12-08T10:01:28;32.67;;;29.83;;
21519;SDS011;10921;53.614;9.882;2022-12-08T10:03:58;31.75;;;28.67;;
21519;SDS011;10921;53.614;9.882;2022-12-08T10:06:40;32.20;;;29.13;;
21519;SDS011;10921;53.614;9.882;2022-12-08T10:14:39;28.77;;;26.40;;
21519;SDS011;10921;53.614;9.882;2022-12-08T10:17:30;28.55;;;26.02;;
21519;SDS011;10921;53.614;9.882;2022-12-08T10:20:17;28.65;;;26.25;;
21519;SDS011;10921;53.614;9.882;2022-12-08T10:22:49;28.90;;;26.60;;
21519;SDS011;10921;53.614;9.882;2022-12-08T10:25:44;28.02;;;25.75;;
21519;SDS011;10921;53.614;9.882;2022-12-08T10:28:10;28.60;;;26.30;;
21519;SDS011;10921;53.614;9.882;2022-12-08T10:30:37;29.48;;;26.85;;
21519;SDS011;10921;53.614;9.882;2022-12-08T10:33:04;26.58;;;24.38;;
21519;SDS011;10921;53.614;9.882;2022-12-08T10:35:47;27.60;;;25.38;;
21519;SDS011;10921;53.614;9.882;2022-12-08T10:38:33;27.63;;;25.15;;
21519;SDS011;10921;53.614;9.882;2022-12-08T10:41:11;26.40;;;24.20;;
21519;SDS011;10921;53.614;9.882;2022-12-08T10:43:43;28.05;;;25.52;;
21519;SDS011;10921;53.614;9.882;2022-12-08T10:46:21;30.17;;;27.00;;
21519;SDS011;10921;53.614;9.882;2022-12-08T10:49:09;36.50;;;25.98;;
21519;SDS011;10921;53.614;9.882;2022-12-08T10:51:39;57.88;;;31.95;;
21519;SDS011;10921;53.614;9.882;2022-12-08T10:57:10;52.42;;;31.50;;
21519;SDS011;10921;53.614;9.882;2022-12-08T10:59:46;34.28;;;27.63;;
21519;SDS011;10921;53.614;9.882;2022-12-08T11:02:17;29.73;;;26.55;;
21519;SDS011;10921;53.614;9.882;2022-12-08T11:04:45;29.48;;;26.45;;
21519;SDS011;10921;53.614;9.882;2022-12-08T11:07:19;28.00;;;25.33;;
21519;SDS011;10921;53.614;9.882;2022-12-08T11:09:47;26.98;;;24.50;;
21519;SDS011;10921;53.614;9.882;2022-12-08T11:12:18;35.90;;;27.15;;
21519;SDS011;10921;53.614;9.882;2022-12-08T11:14:48;31.25;;;26.73;;
21519;SDS011;10921;53.614;9.882;2022-12-08T11:19:44;28.42;;;25.83;;
21519;SDS011;10921;53.614;9.882;2022-12-08T11:27:24;32.20;;;28.80;;
21519;SDS011;10921;53.614;9.882;2022-12-08T11:29:51;31.80;;;28.60;;
21519;SDS011;10921;53.614;9.882;2022-12-08T11:32:18;30.08;;;27.13;;
21519;SDS011;10921;53.614;9.882;2022-12-08T11:40:12;31.02;;;28.00;;
21519;SDS011;10921;53.614;9.882;2022-12-08T11:42:59;30.75;;;27.88;;
21519;SDS011;10921;53.614;9.882;2022-12-08T11:45:34;39.00;;;28.83;;
21519;SDS011;10921;53.614;9.882;2022-12-08T11:48:13;30.20;;;27.60;;
21519;SDS011;10921;53.614;9.882;2022-12-08T11:50:53;30.15;;;27.40;;
21519;SDS011;10921;53.614;9.882;2022-12-08T11:53:43;30.52;;;27.55;;
21519;SDS011;10921;53.614;9.882;2022-12-08T11:56:25;30.92;;;28.05;;
21519;SDS011;10921;53.614;9.882;2022-12-08T11:59:00;30.63;;;27.77;;
21519;SDS011;10921;53.614;9.882;2022-12-08T12:01:31;29.73;;;26.98;;
21519;SDS011;10921;53.614;9.882;2022-12-08T12:15:45;29.95;;;27.55;;
21519;SDS011;10921;53.614;9.882;2022-12-08T12:18:27;29.20;;;26.30;;
21519;SDS011;10921;53.614;9.882;2022-12-08T12:21:09;28.58;;;26.08;;
21519;SDS011;10921;53.614;9.882;2022-12-08T12:23:50;28.95;;;26.63;;
21519;SDS011;10921;53.614;9.882;2022-12-08T12:26:25;29.15;;;26.65;;
21519;SDS011;10921;53.614;9.882;2022-12-08T12:29:04;28.92;;;26.38;;
21519;SDS011;10921;53.614;9.882;2022-12-08T12:31:36;31.52;;;28.52;;
21519;SDS011;10921;53.614;9.882;2022-12-08T12:36:48;30.92;;;28.15;;
21519;SDS011;10921;53.614;9.882;2022-12-08T12:39:19;31.08;;;28.35;;
21519;SDS011;10921;53.614;9.882;2022-12-08T12:41:54;30.58;;;27.88;;
21519;SDS011;10921;53.614;9.882;2022-12-08T12:46:58;30.48;;;27.75;;
21519;SDS011;10921;53.614;9.882;2022-12-08T12:54:44;30.75;;;28.02;;
21519;SDS011;10921;53.614;9.882;2022-12-08T12:57:50;29.30;;;26.85;;
21519;SDS011;10921;53.614;9.882;2022-12-08T13:00:22;28.58;;;26.17;;
21519;SDS011;10921;53.614;9.882;2022-12-08T13:02:51;28.50;;;26.13;;
21519;SDS011;10921;53.614;9.882;2022-12-08T13:08:02;29.70;;;27.15;;
21519;SDS011;10921;53.614;9.882;2022-12-08T13:10:36;30.02;;;27.42;;
21519;SDS011;10921;53.614;9.882;2022-12-08T13:13:06;29.65;;;27.15;;
21519;SDS011;10921;53.614;9.882;2022-12-08T13:15:51;29.13;;;26.60;;
21519;SDS011;10921;53.614;9.882;2022-12-08T13:18:24;29.55;;;27.10;;
21519;SDS011;10921;53.614;9.882;2022-12-08T13:20:52;29.33;;;26.73;;
21519;SDS011;10921;53.614;9.882;2022-12-08T13:29:40;29.77;;;27.38;;
21519;SDS011;10921;53.614;9.882;2022-12-08T13:31:57;31.65;;;28.77;;
21519;SDS011;10921;53.614;9.882;2022-12-08T13:47:57;33.13;;;30.33;;
21519;SDS011;10921;53.614;9.882;2022-12-08T13:50:53;35.28;;;32.00;;
21519;SDS011;10921;53.614;9.882;2022-12-08T13:53:46;35.75;;;32.33;;
21519;SDS011;10921;53.614;9.882;2022-12-08T13:56:44;36.58;;;32.83;;
21519;SDS011;10921;53.614;9.882;2022-12-08T13:59:32;74.63;;;46.85;;
21519;SDS011;10921;53.614;9.882;2022-12-08T14:02:03;49.13;;;37.00;;
21519;SDS011;10921;53.614;9.882;2022-12-08T14:04:54;37.80;;;33.80;;
21519;SDS011;10921;53.614;9.882;2022-12-08T14:07:41;35.13;;;31.85;;
21519;SDS011;10921;53.614;9.882;2022-12-08T14:10:12;35.55;;;31.98;;
21519;SDS011;10921;53.614;9.882;2022-12-08T14:12:44;43.35;;;34.17;;
21519;SDS011;10921;53.614;9.882;2022-12-08T14:15:13;36.20;;;32.83;;
21519;SDS011;10921;53.614;9.882;2022-12-08T14:17:45;38.78;;;34.88;;
21519;SDS011;10921;53.614;9.882;2022-12-08T14:22:50;37.67;;;33.92;;
21519;SDS011;10921;53.614;9.882;2022-12-08T14:25:18;39.17;;;35.38;;
21519;SDS011;10921;53.614;9.882;2022-12-08T14:27:45;39.47;;;35.78;;
21519;SDS011;10921;53.614;9.882;2022-12-08T14:32:51;38.40;;;34.72;;
21519;SDS011;10921;53.614;9.882;2022-12-08T14:35:28;39.08;;;35.13;;
21519;SDS011;10921;53.614;9.882;2022-12-08T14:37:57;37.67;;;34.28;;
21519;SDS011;10921;53.614;9.882;2022-12-08T14:40:29;37.17;;;33.58;;
21519;SDS011;10921;53.614;9.882;2022-12-08T14:48:23;44.42;;;38.53;;
21519;SDS011;10921;53.614;9.882;2022-12-08T14:50:57;38.35;;;34.70;;
21519;SDS011;10921;53.614;9.882;2022-12-08T14:53:30;35.90;;;32.60;;
21519;SDS011;10921;53.614;9.882;2022-12-08T14:56:05;37.78;;;34.28;;
21519;SDS011;10921;53.614;9.882;2022-12-08T15:01:32;34.72;;;31.38;;
21519;SDS011;10921;53.614;9.882;2022-12-08T15:04:00;43.55;;;38.80;;
21519;SDS011;10921;53.614;9.882;2022-12-08T15:09:39;40.95;;;36.67;;
21519;SDS011;10921;53.614;9.882;2022-12-08T15:14:41;41.45;;;36.50;;
21519;SDS011;10921;53.614;9.882;2022-12-08T15:17:27;44.40;;;39.60;;
21519;SDS011;10921;53.614;9.882;2022-12-08T15:19:58;41.78;;;37.33;;
21519;SDS011;10921;53.614;9.882;2022-12-08T15:22:25;42.55;;;37.97;;
21519;SDS011;10921;53.614;9.882;2022-12-08T15:24:55;44.70;;;36.53;;
21519;SDS011;10921;53.614;9.882;2022-12-08T15:27:22;41.45;;;37.10;;
21519;SDS011;10921;53.614;9.882;2022-12-08T15:29:50;41.42;;;37.20;;
21519;SDS011;10921;53.614;9.882;2022-12-08T15:32:20;42.42;;;37.83;;
21519;SDS011;10921;53.614;9.882;2022-12-08T15:34:48;44.45;;;39.78;;
21519;SDS011;10921;53.614;9.882;2022-12-08T15:37:20;45.17;;;40.20;;
21519;SDS011;10921;53.614;9.882;2022-12-08T15:39:49;50.67;;;42.92;;
21519;SDS011;10921;53.614;9.882;2022-12-08T15:42:15;45.65;;;39.33;;
21519;SDS011;10921;53.614;9.882;2022-12-08T15:44:42;77.07;;;58.95;;
21519;SDS011;10921;53.614;9.882;2022-12-08T15:47:12;66.90;;;56.55;;
21519;SDS011;10921;53.614;9.882;2022-12-08T15:49:42;60.22;;;52.50;;
21519;SDS011;10921;53.614;9.882;2022-12-08T15:52:11;54.63;;;47.42;;
21519;SDS011;10921;53.614;9.882;2022-12-08T15:54:39;46.33;;;39.95;;
21519;SDS011;10921;53.614;9.882;2022-12-08T15:57:06;43.88;;;39.20;;
21519;SDS011;10921;53.614;9.882;2022-12-08T16:00:00;44.10;;;39.20;;
21519;SDS011;10921;53.614;9.882;2022-12-08T16:02:29;50.45;;;43.08;;
21519;SDS011;10921;53.614;9.882;2022-12-08T16:05:15;44.75;;;40.03;;
21519;SDS011;10921;53.614;9.882;2022-12-08T16:08:02;45.35;;;40.40;;
21519;SDS011;10921;53.614;9.882;2022-12-08T16:10:48;49.67;;;44.22;;
21519;SDS011;10921;53.614;9.882;2022-12-08T16:13:35;48.35;;;41.78;;
21519;SDS011;10921;53.614;9.882;2022-12-08T16:16:37;49.20;;;42.97;;
21519;SDS011;10921;53.614;9.882;2022-12-08T16:19:03;51.67;;;41.35;;
21519;SDS011;10921;53.614;9.882;2022-12-08T16:21:30;53.78;;;45.30;;
21519;SDS011;10921;53.614;9.882;2022-12-08T16:24:16;52.97;;;44.13;;
21519;SDS011;10921;53.614;9.882;2022-12-08T16:26:43;51.22;;;42.63;;
21519;SDS011;10921;53.614;9.882;2022-12-08T16:29:29;49.88;;;42.70;;
21519;SDS011;10921;53.614;9.882;2022-12-08T16:31:56;46.88;;;40.83;;
21519;SDS011;10921;53.614;9.882;2022-12-08T16:34:22;46.70;;;41.63;;
21519;SDS011;10921;53.614;9.882;2022-12-08T16:36:49;45.42;;;40.53;;
21519;SDS011;10921;53.614;9.882;2022-12-08T16:39:17;48.67;;;42.88;;
21519;SDS011;10921;53.614;9.882;2022-12-08T16:41:44;51.30;;;42.65;;
21519;SDS011;10921;53.614;9.882;2022-12-08T16:44:29;52.58;;;42.40;;
21519;SDS011;10921;53.614;9.882;2022-12-08T16:46:55;50.67;;;41.15;;
21519;SDS011;10921;53.614;9.882;2022-12-08T16:49:22;47.60;;;39.45;;
21519;SDS011;10921;53.614;9.882;2022-12-08T16:51:48;49.22;;;40.08;;
21519;SDS011;10921;53.614;9.882;2022-12-08T16:54:14;48.97;;;41.00;;